createdAt,value
2022-07-26T00:04:10.701Z,13.62
2022-07-26T00:09:13.617Z,13.88
2022-07-26T00:14:16.716Z,14.79
2022-07-26T00:19:19.445Z,15.23
2022-07-26T00:24:22.201Z,15.07
2022-07-26T00:29:25.008Z,15.34
2022-07-26T00:34:27.847Z,16.28
2022-07-26T00:39:30.590Z,16.45
2022-07-26T00:44:40.158Z,16.41
2022-07-26T00:49:43.709Z,16.17
2022-07-26T00:54:46.939Z,16.05
2022-07-26T00:59:49.779Z,16.14
2022-07-26T01:04:52.500Z,16.00
2022-07-26T01:09:55.463Z,15.91
2022-07-26T01:14:58.443Z,15.77
2022-07-26T01:20:01.361Z,15.64
2022-07-26T01:25:06.634Z,15.52
2022-07-26T01:30:11.698Z,15.53
2022-07-26T01:35:14.531Z,15.57
2022-07-26T01:40:17.296Z,15.59
2022-07-26T01:45:20.042Z,15.62
2022-07-26T01:50:22.809Z,15.63
2022-07-26T01:55:25.573Z,15.73
2022-07-26T02:00:29.463Z,15.95
2022-07-26T02:05:32.277Z,16.07
2022-07-26T02:10:53.377Z,16.10
2022-07-26T02:15:56.138Z,16.26
2022-07-26T02:21:05.591Z,16.46
2022-07-26T02:26:13.386Z,16.63
2022-07-26T02:31:19.974Z,16.74
2022-07-26T02:36:23.558Z,16.79
2022-07-26T02:41:26.283Z,16.77
2022-07-26T02:46:29.177Z,16.72
2022-07-26T02:51:32.106Z,16.88
2022-07-26T02:56:35.157Z,16.80
2022-07-26T03:01:40.024Z,16.76
2022-07-26T03:06:45.501Z,17.00
2022-07-26T03:11:48.296Z,17.41
2022-07-26T03:16:51.320Z,17.49
2022-07-26T03:21:54.079Z,17.84
2022-07-26T03:26:57.342Z,18.88
2022-07-26T03:32:00.094Z,20.03
2022-07-26T03:37:02.895Z,20.98
2022-07-26T03:42:05.742Z,21.24
2022-07-26T03:47:08.633Z,21.90
2022-07-26T03:52:11.362Z,22.32
2022-07-26T03:57:22.817Z,22.55
2022-07-26T04:03:09.980Z,22.80
2022-07-26T04:08:37.184Z,22.81
2022-07-26T04:14:24.280Z,23.06
2022-07-26T04:19:17.991Z,23.61
2022-07-26T04:38:22.205Z,24.07
2022-07-26T04:51:23.565Z,24.69
2022-07-26T04:56:26.969Z,24.88
2022-07-26T05:01:29.844Z,24.73
2022-07-26T05:06:32.783Z,24.30
2022-07-26T05:11:35.722Z,24.42
2022-07-26T05:16:39.224Z,24.41
2022-07-26T05:21:50.082Z,24.96
2022-07-26T05:26:56.817Z,25.86
2022-07-26T05:32:01.422Z,26.26
2022-07-26T05:37:04.335Z,26.51
2022-07-26T05:42:09.923Z,25.88
2022-07-26T05:47:12.774Z,24.56
2022-07-26T05:52:18.805Z,23.94
2022-07-26T05:57:23.975Z,23.54
2022-07-26T06:02:26.887Z,23.75
2022-07-26T06:07:29.839Z,24.72
2022-07-26T06:12:32.650Z,25.35
2022-07-26T06:17:35.489Z,25.46
2022-07-26T06:22:47.416Z,25.55
2022-07-26T06:27:50.201Z,26.11
2022-07-26T06:32:52.965Z,26.12
2022-07-26T06:38:02.134Z,26.30
2022-07-26T06:43:05.887Z,26.35
2022-07-26T06:48:11.433Z,26.23
2022-07-26T06:53:14.359Z,26.31
2022-07-26T06:58:17.168Z,26.39
2022-07-26T07:03:19.869Z,25.96
2022-07-26T07:08:25.081Z,25.77
2022-07-26T07:13:27.864Z,25.56
2022-07-26T07:18:30.709Z,25.31
2022-07-26T07:23:34.172Z,24.85
2022-07-26T07:28:38.879Z,24.60
2022-07-26T07:33:52.499Z,24.49
2022-07-26T07:38:56.792Z,23.97
2022-07-26T07:43:59.880Z,23.72
2022-07-26T07:49:02.817Z,23.62
2022-07-26T07:54:06.127Z,23.46
2022-07-26T07:59:09.458Z,24.09
2022-07-26T08:04:12.450Z,24.71
2022-07-26T08:09:15.340Z,25.59
2022-07-26T08:14:21.235Z,26.06
2022-07-26T08:19:23.899Z,26.29
2022-07-26T08:24:38.293Z,25.97
2022-07-26T08:29:44.155Z,25.76
2022-07-26T08:34:46.910Z,25.78
2022-07-26T08:39:49.847Z,25.64
2022-07-26T08:45:01.832Z,25.57
2022-07-26T08:50:07.018Z,25.31
2022-07-26T08:55:10.980Z,24.54
2022-07-26T09:00:22.965Z,24.22
2022-07-26T09:05:33.590Z,23.70
2022-07-26T09:10:39.425Z,23.77
2022-07-26T09:15:42.238Z,24.04
2022-07-26T09:20:48.336Z,24.24
2022-07-26T09:26:04.889Z,24.26
2022-07-26T09:31:12.263Z,23.84
2022-07-26T09:36:15.102Z,23.43
2022-07-26T09:41:31.432Z,23.26
2022-07-26T09:46:36.038Z,23.17
2022-07-26T09:51:50.822Z,23.33
2022-07-26T09:56:57.585Z,23.95
2022-07-26T10:02:01.277Z,24.64
2022-07-26T10:07:05.105Z,25.44
2022-07-26T10:12:09.468Z,25.65
2022-07-26T10:17:31.738Z,24.84
2022-07-26T10:22:40.902Z,24.22
2022-07-26T10:27:45.419Z,23.78
2022-07-26T10:33:05.147Z,23.71
2022-07-26T10:38:13.419Z,23.83
2022-07-26T10:48:59.804Z,23.93
2022-07-26T10:54:07.725Z,23.75
2022-07-26T10:59:11.259Z,23.30
2022-07-26T11:04:21.296Z,23.13
2022-07-26T11:09:24.082Z,23.20
2022-07-26T11:14:26.894Z,22.88
2022-07-26T11:19:30.042Z,22.84
2022-07-26T11:24:33.781Z,22.77
2022-07-26T11:29:41.132Z,22.66
2022-07-26T11:34:45.787Z,22.94
2022-07-26T11:39:48.464Z,23.01
2022-07-26T11:44:51.339Z,23.11
2022-07-26T11:55:29.648Z,23.31
2022-07-26T12:00:32.509Z,23.21
2022-07-26T12:05:35.752Z,23.13
2022-07-26T12:10:38.750Z,23.04
2022-07-26T12:15:46.226Z,23.00
2022-07-26T12:21:07.990Z,23.04
2022-07-26T12:26:31.542Z,22.94
2022-07-26T12:31:34.602Z,23.04
2022-07-26T12:36:37.346Z,23.72
2022-07-26T12:41:40.925Z,25.14
2022-07-26T12:46:47.724Z,24.99
2022-07-26T12:51:50.646Z,24.12
2022-07-26T12:56:53.462Z,23.54
2022-07-26T13:01:56.249Z,23.20
2022-07-26T13:06:59.139Z,23.71
2022-07-26T13:12:03.151Z,26.96
2022-07-26T13:17:06.945Z,29.24
2022-07-26T13:22:10.210Z,30.16
2022-07-26T13:34:02.342Z,31.60
2022-07-26T13:39:06.349Z,31.51
2022-07-26T13:44:09.628Z,31.55
2022-07-26T13:49:17.793Z,31.29
2022-07-26T13:54:36.880Z,30.91
2022-07-26T13:59:40.179Z,30.29
2022-07-26T14:04:56.762Z,29.59
2022-07-26T14:09:59.699Z,27.99
2022-07-26T14:15:05.472Z,25.82
2022-07-26T14:20:13.919Z,24.90
2022-07-26T14:31:24.777Z,21.90
2022-07-26T14:36:30.076Z,21.02
2022-07-26T14:41:32.878Z,20.40
2022-07-26T14:46:35.907Z,19.87
2022-07-26T14:51:48.924Z,19.42
2022-07-26T14:56:51.864Z,19.07
2022-07-26T15:01:54.751Z,18.77
2022-07-26T15:06:57.665Z,18.50
2022-07-26T15:12:00.959Z,18.25
2022-07-26T15:17:05.730Z,18.00
2022-07-26T15:22:10.327Z,17.86
2022-07-26T15:27:13.009Z,17.77
2022-07-26T15:32:15.947Z,17.64
2022-07-26T15:37:21.649Z,17.56
2022-07-26T15:42:24.476Z,17.41
2022-07-26T15:52:51.444Z,17.15
2022-07-26T15:57:54.283Z,17.04
2022-07-26T16:02:56.961Z,16.98
2022-07-26T16:07:59.731Z,16.92
2022-07-26T16:13:02.502Z,16.83
2022-07-26T16:18:06.557Z,16.72
2022-07-26T16:23:10.200Z,16.53
2022-07-26T16:28:13.099Z,16.46
2022-07-26T16:33:15.952Z,16.39
2022-07-26T16:38:18.931Z,16.38
2022-07-26T16:43:23.518Z,16.32
2022-07-26T16:48:26.297Z,16.28
2022-07-26T16:53:29.047Z,16.20
2022-07-26T16:58:37.654Z,16.19
2022-07-26T17:03:40.357Z,16.28
2022-07-26T17:08:45.986Z,16.35
2022-07-26T17:13:49.191Z,16.33
2022-07-26T17:18:52.684Z,16.31
2022-07-26T17:23:55.511Z,16.28
2022-07-26T17:28:58.418Z,16.15
2022-07-26T17:34:01.163Z,16.02
2022-07-26T17:39:04.230Z,15.92
2022-07-26T17:44:08.389Z,15.82
2022-07-26T17:49:11.550Z,15.73
2022-07-26T17:54:14.761Z,15.60
2022-07-26T17:59:17.761Z,15.49
2022-07-26T18:04:20.957Z,15.37
2022-07-26T18:09:23.765Z,15.27
2022-07-26T18:14:26.834Z,15.14
2022-07-26T18:19:31.225Z,15.18
2022-07-26T18:24:33.966Z,15.16
2022-07-26T18:29:36.865Z,15.13
2022-07-26T18:34:39.591Z,15.11
2022-07-26T18:39:57.735Z,15.06
2022-07-26T18:45:01.002Z,14.99
2022-07-26T18:50:06.045Z,14.95
2022-07-26T18:55:11.767Z,14.91
2022-07-26T19:00:17.900Z,14.96
2022-07-26T19:05:20.997Z,14.84
2022-07-26T19:10:24.615Z,14.76
2022-07-26T19:15:27.666Z,14.67
2022-07-26T19:20:30.524Z,14.58
2022-07-26T19:25:33.311Z,14.47
2022-07-26T19:30:36.729Z,14.33
2022-07-26T19:35:39.476Z,14.33
2022-07-26T19:40:44.605Z,14.28
2022-07-26T19:45:47.560Z,14.22
2022-07-26T19:50:51.631Z,14.16
2022-07-26T19:55:54.569Z,14.09
2022-07-26T20:00:57.416Z,13.97
2022-07-26T20:06:01.210Z,13.87
2022-07-26T20:11:04.131Z,13.81
2022-07-26T20:16:06.862Z,13.76
2022-07-26T20:21:10.451Z,13.83
2022-07-26T20:26:14.751Z,13.85
2022-07-26T20:31:17.549Z,13.87
2022-07-26T20:36:20.325Z,13.86
2022-07-26T20:41:23.119Z,13.80
2022-07-26T20:46:25.882Z,13.70
2022-07-26T20:51:29.196Z,13.64
2022-07-26T20:56:33.139Z,13.56
2022-07-26T21:01:36.191Z,13.54
2022-07-26T21:06:39.036Z,13.54
2022-07-26T21:11:41.660Z,13.58
2022-07-26T21:16:44.507Z,13.44
2022-07-26T21:21:47.337Z,13.38
2022-07-26T21:26:50.071Z,13.30
2022-07-26T21:31:52.821Z,13.28
2022-07-26T21:36:55.816Z,13.26
2022-07-26T21:41:58.780Z,13.28
2022-07-26T21:47:01.581Z,13.24
2022-07-26T21:52:04.664Z,13.15
2022-07-26T21:57:07.831Z,13.08
2022-07-26T22:02:10.696Z,13.05
2022-07-26T22:07:13.543Z,13.09
2022-07-26T22:12:16.388Z,13.01
2022-07-26T22:17:19.134Z,13.03
2022-07-26T22:22:21.812Z,13.06
2022-07-26T22:27:24.574Z,13.09
2022-07-26T22:32:27.739Z,13.14
2022-07-26T22:37:30.495Z,13.19
2022-07-26T22:42:33.481Z,13.23
2022-07-26T22:47:36.200Z,13.26
2022-07-26T22:52:41.939Z,13.30
2022-07-26T22:57:45.333Z,13.41
2022-07-26T23:02:48.923Z,13.47
2022-07-26T23:07:51.882Z,13.58
2022-07-26T23:12:55.651Z,13.69
2022-07-26T23:17:58.593Z,13.75
2022-07-26T23:23:01.630Z,13.82
2022-07-26T23:28:04.545Z,13.94
2022-07-26T23:33:07.484Z,14.07
2022-07-26T23:38:10.183Z,14.25
2022-07-26T23:43:13.009Z,14.42
2022-07-26T23:48:15.703Z,14.59
2022-07-26T23:53:18.501Z,14.82
2022-07-26T23:58:29.719Z,14.92
